This is the latest recevied weather packets stored in our database for station/object VE2BTZ. If no packets are shown the sender has not sent any weather packets the latest 10 day(s).
| Time | Temp. | Humidity | Pressure | Rain* | Wind** | Luminosity | Snow |
|---|---|---|---|---|---|---|---|
| 1778111704 | 7.78° C | 83% | 1008.2 hPa | 0 mm | - | - | - |
| 1778109603 | 8.33° C | 80% | 1008 hPa | 0 mm | - | - | - |
| 1778109003 | 8.33° C | 79% | 1008 hPa | 0 mm | - | - | - |
| 1778107804 | 8.33° C | 78% | 1008 hPa | 0 mm | - | - | - |
| 1778107504 | 8.33° C | 79% | 1008 hPa | 0 mm | - | - | - |
| 1778106604 | 8.33° C | 79% | 1007.9 hPa | 0 mm | - | - | - |
| 1778104804 | 8.33° C | 80% | 1008 hPa | 0 mm | - | - | - |
| 1778104504 | 8.33° C | 81% | 1008.1 hPa | 0 mm | - | - | - |
| 1778101804 | 8.33° C | 85% | 1008 hPa | 0 mm | - | - | - |
| 1778100605 | 8.33° C | 85% | 1008.4 hPa | 0 mm | - | - | - |
| 1778097604 | 8.33° C | 86% | 1008.3 hPa | 0 mm | - | - | - |
| 1778097303 | 8.33° C | 86% | 1008.4 hPa | 0 mm | - | - | - |
| 1778096704 | 8.33° C | 86% | 1008.4 hPa | 0 mm | - | - | - |
| 1778094303 | 8.33° C | 86% | 1008.4 hPa | 0 mm | - | - | - |
| 1778092504 | 7.78° C | 88% | 1008.3 hPa | 0 mm | - | - | - |
| 1778090403 | 7.78° C | 90% | 1008.7 hPa | 0.25 mm | - | - | - |
| 1778089503 | 7.22° C | 90% | 1009 hPa | 0.25 mm | - | - | - |
| 1778089204 | 7.22° C | 90% | 1009.1 hPa | 0.25 mm | - | - | - |
| 1778088605 | 7.22° C | 90% | 1009 hPa | 0.51 mm | - | - | - |
| 1778083504 | 6.67° C | 91% | 1009.8 hPa | 1.78 mm | - | - | - |
| 1778083203 | 6.11° C | 91% | 1009.8 hPa | 2.03 mm | - | - | - |
| 1778074804 | 6.67° C | 90% | 1009.8 hPa | 0.76 mm | - | - | - |
| 1778073904 | 6.67° C | 91% | 1009.8 hPa | 0.76 mm | - | - | - |
| 1778072403 | 6.67° C | 91% | 1009.7 hPa | 1.27 mm | - | - | - |
| 1778071203 | 6.67° C | 90% | 1010 hPa | 1.52 mm | - | - | - |
* Rain latest hour (hover to see other rain measurements)
** Current wind speed in m/s (hover to see current wind gust speed)